Terminal Aerodrome Forecast
Issued by NWS

Home | Current Version | Previous Version | Text Only | Print | Product List | Glossary On
Versions: 1 2 3 4 5 6 7 8 9 10 11 12 13 14 15 16 17 18 19 20 21 22 23 24 25 26 27 28 29
009
FTUS41 KGYX 190532
TAFLEB
TAF
KLEB 190532Z 1906/2006 00000KT P6SM OVC035
      TEMPO 1907/1908 2SM -SN OVC007
     FM191000 00000KT 1 1/2SM BR OVC003
     FM191300 00000KT P6SM BKN020
     FM191800 31004KT P6SM BKN035
     FM200000 33006KT P6SM BKN050=

USA.gov is the U.S. government's official web portal to all federal, state and local government web resources and services.